Time;durP1;ratioP1;P1;durP2;ratioP2;P2;SDS_P1;SDS_P2;PMS_P1;PMS_P2;Temp;Humidity;BMP_temperature;BMP_pressure;BME280_temperature;BME280_humidity;BME280_pressure;Samples;Min_cycle;Max_cycle;Signal;HPM_P1;HPM_P2
2022/05/12 00:01:03;;;;;;;4.40;2.33;;;;;;;23.07;24.78;98440.91;5092567;28;20047;-63
2022/05/12 00:03:28;;;;;;;8.10;3.00;;;;;;;23.11;24.61;98439.41;5092534;28;20043;-63
2022/05/12 00:05:54;;;;;;;8.38;3.00;;;;;;;23.15;24.85;98439.75;5093110;28;20036;-63
2022/05/12 00:08:19;;;;;;;6.07;3.58;;;;;;;23.19;24.64;98440.13;5089720;28;20067;-62
2022/05/12 00:10:45;;;;;;;5.38;3.28;;;;;;;23.24;24.86;98440.28;5092957;28;20032;-63
2022/05/12 00:13:11;;;;;;;4.35;2.75;;;;;;;23.26;24.93;98440.88;5088879;28;20469;-62
2022/05/12 00:15:37;;;;;;;6.28;3.05;;;;;;;23.30;24.70;98436.69;5104097;28;20039;-62
2022/05/12 00:18:06;;;;;;;3.78;2.05;;;;;;;23.31;24.85;98435.59;5094056;28;20051;-62
2022/05/12 00:20:34;;;;;;;7.00;2.58;;;;;;;23.33;24.62;98436.19;5092514;28;20047;-62
2022/05/12 00:23:17;;;;;;;3.90;2.70;;;;;;;23.37;24.67;98431.97;5090830;28;20050;-62
2022/05/12 00:25:45;;;;;;;4.97;2.60;;;;;;;23.38;24.60;98430.94;5072354;28;20046;-63
2022/05/12 00:28:11;;;;;;;4.25;2.47;;;;;;;23.41;24.60;98429.63;5080161;28;20110;-62
2022/05/12 00:30:37;;;;;;;5.05;2.53;;;;;;;23.43;24.58;98430.22;5091875;28;20032;-62
2022/05/12 00:33:04;;;;;;;3.88;2.50;;;;;;;23.45;24.61;98437.03;5092427;28;20036;-62
2022/05/12 00:35:29;;;;;;;6.18;2.72;;;;;;;23.44;24.53;98430.00;5092519;28;20055;-63
2022/05/12 00:37:55;;;;;;;5.43;2.10;;;;;;;23.41;24.65;98422.38;5088824;28;20071;-62
2022/05/12 00:40:20;;;;;;;3.30;2.10;;;;;;;23.42;24.77;98418.63;5086640;28;20535;-63
2022/05/12 00:42:53;;;;;;;3.58;2.28;;;;;;;23.45;24.56;98425.44;5112896;28;20081;-62
2022/05/12 00:45:19;;;;;;;3.85;2.42;;;;;;;23.45;24.84;98420.84;5112701;28;20045;-62
2022/05/12 00:47:44;;;;;;;3.38;2.08;;;;;;;23.50;24.88;98427.41;5105560;28;20119;-61
2022/05/12 00:50:10;;;;;;;4.43;2.92;;;;;;;23.51;24.63;98415.56;5074027;28;20086;-62
2022/05/12 00:52:35;;;;;;;5.22;3.28;;;;;;;23.42;24.42;98415.09;5072181;28;20036;-61
2022/05/12 00:55:07;;;;;;;3.85;2.53;;;;;;;23.31;24.54;98405.91;5072291;28;20502;-62
2022/05/12 00:57:37;;;;;;;5.13;2.30;;;;;;;23.17;24.69;98407.97;5083334;28;20048;-62
2022/05/12 01:00:06;;;;;;;5.50;2.80;;;;;;;23.05;24.88;98412.53;5093165;28;20044;-63
2022/05/12 01:02:33;;;;;;;3.88;2.50;;;;;;;22.94;24.86;98412.22;5082980;28;20493;-63
2022/05/12 01:04:59;;;;;;;5.03;3.40;;;;;;;22.86;24.81;98404.47;5087873;28;20032;-62
2022/05/12 01:07:25;;;;;;;5.97;2.90;;;;;;;22.79;24.91;98409.97;5095522;28;20036;-62
2022/05/12 01:09:51;;;;;;;3.75;2.50;;;;;;;22.74;24.94;98401.72;5080741;28;20387;-63
2022/05/12 01:12:17;;;;;;;7.38;2.75;;;;;;;22.69;24.86;98402.41;5095080;28;20029;-64
2022/05/12 01:14:43;;;;;;;8.15;2.85;;;;;;;22.65;25.09;98400.41;5089832;28;20047;-64
2022/05/12 01:17:09;;;;;;;5.60;2.72;;;;;;;22.60;25.14;98392.16;5105187;28;20035;-64
2022/05/12 01:19:38;;;;;;;6.05;2.85;;;;;;;22.58;24.88;98392.41;5084138;28;20040;-64
2022/05/12 01:22:05;;;;;;;3.58;2.28;;;;;;;22.52;24.93;98383.38;5075088;28;20032;-63
2022/05/12 01:24:38;;;;;;;6.30;2.47;;;;;;;22.49;24.45;98380.31;5094302;28;20040;-63
2022/05/12 01:27:20;;;;;;;5.95;2.28;;;;;;;22.46;24.89;98381.56;5095505;28;20043;-63
2022/05/12 01:29:48;;;;;;;6.07;2.45;;;;;;;22.43;24.85;98386.59;5081068;28;20036;-61
2022/05/12 01:32:14;;;;;;;4.47;2.22;;;;;;;22.40;24.88;98371.69;5075625;28;20041;-64
2022/05/12 01:34:40;;;;;;;7.47;2.50;;;;;;;22.39;24.87;98383.50;5080975;28;20051;-64
2022/05/12 01:37:06;;;;;;;3.85;2.15;;;;;;;22.36;24.81;98379.38;5095174;28;20040;-64
2022/05/12 01:39:35;;;;;;;4.00;2.33;;;;;;;22.33;24.98;98381.69;5090461;28;20402;-63
2022/05/12 01:42:03;;;;;;;6.47;2.60;;;;;;;22.31;24.93;98383.78;5095077;28;20032;-63
2022/05/12 01:44:29;;;;;;;4.53;2.63;;;;;;;22.32;24.78;98385.44;5094843;28;20111;-63
2022/05/12 01:46:54;;;;;;;6.90;2.50;;;;;;;22.30;24.74;98380.28;5094780;28;20089;-64
2022/05/12 01:49:20;;;;;;;6.43;2.50;;;;;;;22.30;24.83;98379.44;5090475;28;20037;-63
2022/05/12 01:51:45;;;;;;;4.78;2.50;;;;;;;22.29;24.84;98380.50;5094501;28;20074;-63
2022/05/12 01:54:11;;;;;;;4.90;2.60;;;;;;;22.27;24.80;98385.31;5095219;28;20440;-63
2022/05/12 01:56:37;;;;;;;5.40;2.47;;;;;;;22.28;24.83;98386.97;5094799;28;20143;-64
2022/05/12 01:59:02;;;;;;;5.45;2.40;;;;;;;22.30;24.86;98384.84;5093631;28;20122;-63
2022/05/12 02:01:28;;;;;;;4.28;2.50;;;;;;;22.31;24.86;98386.50;5095034;28;20465;-64
2022/05/12 02:03:53;;;;;;;5.82;2.30;;;;;;;22.33;24.94;98381.69;5094797;28;20040;-63
2022/05/12 02:06:18;;;;;;;5.63;2.67;;;;;;;22.33;24.67;98377.16;5095207;28;20032;-63
2022/05/12 02:08:44;;;;;;;5.35;2.70;;;;;;;22.33;24.74;98390.63;5092356;28;21085;-63
2022/05/12 02:11:09;;;;;;;4.68;2.35;;;;;;;22.33;24.74;98370.91;5094925;28;20085;-63
2022/05/12 02:13:35;;;;;;;5.60;2.30;;;;;;;22.33;24.79;98374.47;5094526;28;20042;-63
2022/05/12 02:16:01;;;;;;;5.22;2.47;;;;;;;22.36;24.71;98389.34;5094489;28;20040;-63
2022/05/12 02:18:27;;;;;;;3.95;2.53;;;;;;;22.33;24.48;98382.53;5093659;28;20123;-64
2022/05/12 02:20:53;;;;;;;5.45;2.28;;;;;;;22.33;24.65;98379.84;5089283;28;20040;-64
2022/05/12 02:23:19;;;;;;;4.63;2.05;;;;;;;22.31;24.87;98379.25;5094229;28;20052;-63
2022/05/12 02:25:45;;;;;;;4.35;2.38;;;;;;;22.30;24.81;98387.53;5078539;28;20047;-64
2022/05/12 02:28:11;;;;;;;5.60;2.53;;;;;;;22.33;24.93;98387.09;5094218;28;20524;-63
2022/05/12 02:30:36;;;;;;;4.10;2.50;;;;;;;22.35;24.90;98391.19;5093237;28;20087;-63
2022/05/12 02:33:02;;;;;;;4.78;2.58;;;;;;;22.36;24.92;98386.66;5076445;28;20044;-63
2022/05/12 02:35:29;;;;;;;5.05;3.15;;;;;;;22.33;24.73;98381.69;5086819;28;20039;-64
2022/05/12 02:37:55;;;;;;;3.03;2.42;;;;;;;22.33;24.98;98374.47;5094167;28;20490;-63
2022/05/12 02:40:22;;;;;;;5.28;2.50;;;;;;;22.33;25.37;98381.69;5094154;28;20092;-63
2022/05/12 02:42:48;;;;;;;5.03;2.70;;;;;;;22.34;25.05;98375.25;5090254;28;20044;-63
2022/05/12 02:45:15;;;;;;;4.45;2.60;;;;;;;22.33;24.97;98370.91;5094218;28;20155;-63
2022/05/12 02:47:41;;;;;;;7.35;2.50;;;;;;;22.33;25.13;98368.22;5093968;28;20039;-64
2022/05/12 02:50:07;;;;;;;3.40;2.38;;;;;;;22.31;25.26;98370.31;5094149;28;20074;-63
2022/05/12 02:52:33;;;;;;;6.40;2.55;;;;;;;22.31;25.12;98365.78;5089048;28;20035;-63
2022/05/12 02:54:58;;;;;;;3.88;2.60;;;;;;;22.30;25.31;98380.28;5114501;28;20402;-63
2022/05/12 02:57:24;;;;;;;5.38;3.08;;;;;;;22.32;25.16;98374.66;5114023;28;20432;-63
2022/05/12 02:59:49;;;;;;;4.63;2.55;;;;;;;22.32;25.20;98372.81;5114387;28;20099;-63
2022/05/12 03:02:15;;;;;;;6.90;2.92;;;;;;;22.33;25.30;98374.47;5101327;28;20038;-63
2022/05/12 03:04:41;;;;;;;10.77;2.55;;;;;;;22.35;25.50;98366.94;5084044;28;20040;-63
2022/05/12 03:07:07;;;;;;;7.45;3.20;;;;;;;22.36;25.41;98375.88;5088028;28;20050;-63
2022/05/12 03:09:32;;;;;;;3.95;2.30;;;;;;;22.37;25.53;98366.72;5073947;28;20071;-63
2022/05/12 03:11:58;;;;;;;4.90;3.42;;;;;;;22.37;25.42;98375.63;5075326;28;20037;-63
2022/05/12 03:14:23;;;;;;;4.35;2.42;;;;;;;22.38;25.54;98363.00;5088524;28;20047;-63
2022/05/12 03:16:53;;;;;;;4.35;2.78;;;;;;;22.38;25.59;98355.72;5092955;28;20384;-63
2022/05/12 03:19:19;;;;;;;4.97;3.08;;;;;;;22.39;25.58;98360.06;5092044;28;20109;-63
2022/05/12 03:21:46;;;;;;;6.50;2.70;;;;;;;22.40;25.50;98355.50;5092856;28;20042;-63
2022/05/12 03:24:12;;;;;;;4.70;2.50;;;;;;;22.41;25.71;98346.38;5087935;28;20047;-63
2022/05/12 03:26:37;;;;;;;6.47;3.05;;;;;;;22.40;25.66;98348.22;5093009;28;20028;-64
2022/05/12 03:29:03;;;;;;;8.38;2.55;;;;;;;22.41;25.68;98349.06;5093893;28;20116;-63
2022/05/12 03:31:28;;;;;;;7.32;2.95;;;;;;;22.42;25.74;98345.34;5077709;28;20064;-63
2022/05/12 03:33:54;;;;;;;6.03;2.80;;;;;;;22.43;25.71;98341.59;5087579;28;20027;-63
2022/05/12 03:36:21;;;;;;;6.55;2.97;;;;;;;22.44;25.80;98345.94;5093183;28;20391;-62
2022/05/12 03:38:47;;;;;;;6.13;3.28;;;;;;;22.44;25.78;98343.22;5093006;28;20439;-62
2022/05/12 03:41:13;;;;;;;7.40;2.90;;;;;;;22.46;25.81;98340.31;5083601;28;20066;-62
2022/05/12 03:46:23;;;;;;;8.65;3.30;;;;;;;22.45;25.73;98350.28;5073520;28;20124;-62
2022/05/12 03:48:49;;;;;;;8.23;3.15;;;;;;;22.46;25.71;98349.22;5092489;28;20024;-63
2022/05/12 03:51:15;;;;;;;7.30;2.90;;;;;;;22.47;25.87;98348.16;5093015;28;20046;-63
2022/05/12 03:53:40;;;;;;;4.63;2.88;;;;;;;22.47;25.75;98356.25;5080099;28;20118;-62
2022/05/12 03:56:07;;;;;;;6.22;2.80;;;;;;;22.50;25.86;98365.78;5089338;28;20063;-62
2022/05/12 03:58:33;;;;;;;9.70;3.47;;;;;;;22.52;26.29;98366.34;5079062;28;20094;-62
2022/05/12 04:00:59;;;;;;;6.05;2.90;;;;;;;22.53;25.79;98357.22;5091698;28;20039;-63
2022/05/12 04:03:24;;;;;;;10.82;3.25;;;;;;;22.55;25.93;98366.75;5075596;28;20059;-62
2022/05/12 04:05:50;;;;;;;5.05;2.47;;;;;;;22.54;25.81;98353.47;5082930;28;20059;-62
2022/05/12 04:08:15;;;;;;;5.32;2.88;;;;;;;22.57;25.86;98358.41;5092186;28;20059;-63
2022/05/12 04:10:41;;;;;;;6.95;2.70;;;;;;;22.58;25.86;98361.91;5092494;28;20479;-62
2022/05/12 04:13:07;;;;;;;9.35;2.50;;;;;;;22.59;25.87;98355.47;5091170;28;20523;-62
2022/05/12 04:15:32;;;;;;;7.03;3.17;;;;;;;22.59;26.00;98361.72;5092396;28;20040;-62
2022/05/12 04:18:04;;;;;;;7.75;3.00;;;;;;;22.61;25.81;98354.22;5091892;28;20044;-62
2022/05/12 04:20:32;;;;;;;5.57;3.08;;;;;;;22.61;25.97;98351.53;5090098;28;20028;-64
2022/05/12 04:22:58;;;;;;;7.85;2.70;;;;;;;22.63;25.80;98351.28;5091556;28;20439;-64
2022/05/12 04:25:24;;;;;;;8.18;3.58;;;;;;;22.64;25.88;98350.22;5092445;28;20039;-62
2022/05/12 04:27:50;;;;;;;9.90;2.67;;;;;;;22.63;25.92;98349.44;5091962;28;20042;-64
2022/05/12 04:30:17;;;;;;;10.40;3.05;;;;;;;22.66;25.65;98342.75;5093690;28;20040;-62
2022/05/12 04:32:43;;;;;;;8.32;2.40;;;;;;;22.69;25.83;98342.28;5090189;28;20434;-62
2022/05/12 04:35:14;;;;;;;6.80;2.92;;;;;;;22.71;25.80;98337.50;5076624;28;20043;-63
2022/05/12 04:37:49;;;;;;;6.38;3.38;;;;;;;22.72;25.82;98333.72;5087254;28;20040;-64
2022/05/12 04:40:22;;;;;;;5.53;2.90;;;;;;;22.73;26.06;98338.06;5096688;28;20116;-64
2022/05/12 04:42:49;;;;;;;5.88;3.22;;;;;;;22.74;26.06;98326.22;5096075;28;20184;-64
2022/05/12 04:45:16;;;;;;;4.60;2.50;;;;;;;22.76;26.07;98324.13;5096203;28;20117;-65
2022/05/12 04:47:43;;;;;;;4.63;2.55;;;;;;;22.76;26.03;98318.72;5086852;28;20036;-63
2022/05/12 04:50:13;;;;;;;7.88;2.80;;;;;;;22.76;26.12;98309.84;5096063;28;20038;-64
2022/05/12 04:52:39;;;;;;;5.47;2.30;;;;;;;22.78;26.06;98310.44;5095464;28;20036;-64
2022/05/12 04:55:05;;;;;;;9.80;3.25;;;;;;;22.78;26.31;98322.03;5093409;28;20483;-63
2022/05/12 04:57:41;;;;;;;5.07;2.63;;;;;;;22.82;26.21;98315.13;5085199;28;20052;-63
2022/05/12 05:00:13;;;;;;;5.47;3.17;;;;;;;22.85;26.25;98319.22;5076026;28;20052;-64
2022/05/12 05:02:39;;;;;;;8.93;3.25;;;;;;;22.84;26.29;98309.50;5075484;28;20557;-64
2022/05/12 05:05:06;;;;;;;6.35;2.85;;;;;;;22.85;26.40;98305.75;5075871;28;20032;-64
2022/05/12 05:07:32;;;;;;;5.57;2.60;;;;;;;22.86;26.39;98300.13;5081405;28;20043;-64
2022/05/12 05:09:57;;;;;;;4.55;2.70;;;;;;;22.86;26.28;98300.13;5096168;28;20038;-64
2022/05/12 05:12:23;;;;;;;9.27;2.97;;;;;;;22.87;26.50;98292.84;5094537;28;20123;-64
2022/05/12 05:14:48;;;;;;;6.03;2.70;;;;;;;22.90;26.82;98296.97;5094349;28;20051;-63
2022/05/12 05:17:14;;;;;;;7.25;2.88;;;;;;;22.94;26.71;98308.94;5095107;28;20393;-64
2022/05/12 05:19:41;;;;;;;4.30;2.97;;;;;;;22.98;26.67;98293.94;5076096;28;20157;-64
2022/05/12 05:22:07;;;;;;;6.80;2.92;;;;;;;22.99;26.63;98298.28;5079188;28;20023;-63
2022/05/12 05:24:34;;;;;;;6.40;2.67;;;;;;;23.00;26.55;98291.84;5087350;28;20101;-63
2022/05/12 05:27:00;;;;;;;8.82;2.53;;;;;;;23.06;26.54;98300.88;5078885;28;20028;-63
2022/05/12 05:29:25;;;;;;;6.40;3.00;;;;;;;23.08;26.79;98287.97;5080358;28;20557;-63
2022/05/12 05:31:51;;;;;;;10.32;2.38;;;;;;;23.10;26.56;98280.44;5087370;28;20036;-64
2022/05/12 05:34:16;;;;;;;7.85;3.00;;;;;;;23.11;26.83;98279.38;5089752;28;20035;-63
2022/05/12 05:36:44;;;;;;;4.53;2.40;;;;;;;23.22;26.97;98291.28;5095182;28;20043;-63
2022/05/12 05:39:29;;;;;;;4.55;2.40;;;;;;;23.46;26.82;98294.81;5091029;28;20039;-63
2022/05/12 05:42:00;;;;;;;10.05;2.70;;;;;;;23.69;26.65;98302.06;5093588;28;20500;-64
2022/05/12 05:44:28;;;;;;;4.72;2.55;;;;;;;23.89;26.23;98298.16;5095321;28;20035;-63
2022/05/12 05:46:54;;;;;;;5.10;2.58;;;;;;;24.06;26.29;98285.56;5091631;28;20119;-63
2022/05/12 05:49:20;;;;;;;7.43;2.38;;;;;;;24.21;26.18;98276.09;5074218;28;20033;-64
2022/05/12 05:54:31;;;;;;;6.05;2.70;;;;;;;24.51;25.51;98285.84;5079789;28;20039;-64
2022/05/12 05:56:57;;;;;;;6.20;2.55;;;;;;;24.67;25.46;98282.34;5088151;28;20051;-63
2022/05/12 05:59:23;;;;;;;6.05;2.63;;;;;;;24.82;25.34;98286.41;5074890;28;20040;-64
2022/05/12 06:01:49;;;;;;;3.42;2.10;;;;;;;24.91;25.43;98273.28;5078369;28;20384;-64
2022/05/12 06:04:17;;;;;;;3.17;2.30;;;;;;;24.99;25.28;98273.72;5094674;28;20471;-64
2022/05/12 06:06:44;;;;;;;8.00;2.28;;;;;;;25.10;25.34;98276.56;5092302;28;20047;-64
2022/05/12 06:09:10;;;;;;;9.95;2.42;;;;;;;25.19;25.03;98276.97;5075028;28;20092;-64
2022/05/12 06:11:35;;;;;;;7.35;2.72;;;;;;;25.26;25.35;98269.50;5074030;28;21801;-64
2022/05/12 06:14:01;;;;;;;8.27;2.75;;;;;;;25.34;25.22;98273.69;5086685;28;20503;-64
2022/05/12 06:16:27;;;;;;;7.95;2.60;;;;;;;25.40;25.02;98275.38;5093565;28;20036;-63
2022/05/12 06:18:53;;;;;;;5.15;2.22;;;;;;;25.43;25.36;98256.81;5093360;28;20067;-63
2022/05/12 06:21:18;;;;;;;6.32;2.65;;;;;;;25.48;25.17;98257.91;5094228;28;20407;-63
2022/05/12 06:23:45;;;;;;;6.90;2.75;;;;;;;25.50;25.06;98250.38;5093892;28;20406;-63
2022/05/12 06:26:14;;;;;;;6.00;2.25;;;;;;;25.52;25.16;98254.44;5094283;28;20028;-63
2022/05/12 06:28:46;;;;;;;7.47;2.80;;;;;;;25.53;24.95;98255.28;5093112;28;20039;-62
2022/05/12 06:31:13;;;;;;;6.32;2.10;;;;;;;25.52;24.89;98251.75;5094066;28;20111;-63
2022/05/12 06:33:41;;;;;;;7.60;3.17;;;;;;;25.53;24.82;98249.88;5093917;28;20042;-63
2022/05/12 06:36:07;;;;;;;6.15;2.28;;;;;;;25.53;25.35;98245.25;5094273;28;20032;-64
2022/05/12 06:38:34;;;;;;;8.80;3.00;;;;;;;25.56;25.20;98239.34;5093521;28;20036;-64
2022/05/12 06:41:00;;;;;;;5.00;2.13;;;;;;;25.58;24.98;98242.63;5094597;28;20382;-64
2022/05/12 06:43:27;;;;;;;8.80;2.28;;;;;;;25.63;25.01;98235.66;5091399;28;20031;-64
2022/05/12 06:45:55;;;;;;;4.90;2.28;;;;;;;25.68;25.06;98232.97;5094025;28;20046;-64
2022/05/12 06:48:21;;;;;;;4.90;2.20;;;;;;;25.75;25.06;98229.03;5092146;28;20115;-64
2022/05/12 06:50:47;;;;;;;4.15;2.45;;;;;;;25.82;25.07;98228.03;5093302;28;20082;-63
2022/05/12 06:53:13;;;;;;;7.80;2.80;;;;;;;25.88;24.93;98222.41;5093945;28;20044;-63
2022/05/12 06:55:39;;;;;;;3.67;2.30;;;;;;;25.93;24.87;98226.25;5091147;28;20480;-64
2022/05/12 06:58:05;;;;;;;3.10;1.75;;;;;;;25.97;24.93;98228.19;5093000;28;20112;-64
2022/05/12 07:00:30;;;;;;;2.28;1.75;;;;;;;26.03;25.20;98229.06;5094054;28;20036;-64
2022/05/12 07:02:56;;;;;;;5.75;2.58;;;;;;;26.07;24.78;98230.19;5089295;28;20031;-64
2022/05/12 07:05:24;;;;;;;5.32;2.00;;;;;;;26.10;24.88;98232.38;5093695;28;20031;-64
2022/05/12 07:07:50;;;;;;;4.50;1.95;;;;;;;26.13;24.78;98226.50;5091361;28;20398;-62
2022/05/12 07:10:18;;;;;;;4.32;2.38;;;;;;;26.19;24.87;98224.66;5091496;28;20081;-61
2022/05/12 07:12:44;;;;;;;4.10;1.90;;;;;;;26.21;24.60;98211.66;5083826;28;20036;-61
2022/05/12 07:15:11;;;;;;;3.65;2.00;;;;;;;26.27;25.03;98213.34;5112022;28;20031;-63
2022/05/12 07:17:38;;;;;;;3.67;2.20;;;;;;;26.31;24.99;98202.81;5096340;28;20369;-63
2022/05/12 07:28:20;;;;;;;5.43;2.17;;;;;;;26.13;25.49;98199.38;5090539;28;20115;-64
2022/05/12 07:31:00;;;;;;;6.55;2.28;;;;;;;26.12;25.63;98205.06;5092692;28;20055;-65
2022/05/12 07:33:27;;;;;;;6.97;2.40;;;;;;;26.07;25.51;98207.69;5094039;28;20031;-64
2022/05/12 07:35:52;;;;;;;7.65;2.38;;;;;;;26.09;25.58;98198.25;5103435;28;20109;-65
2022/05/12 07:38:18;;;;;;;7.95;2.50;;;;;;;26.13;25.93;98195.88;5105252;28;20035;-64
2022/05/12 07:40:43;;;;;;;13.20;3.85;;;;;;;26.16;25.90;98196.16;5106830;28;20036;-65
2022/05/12 07:43:09;;;;;;;17.17;4.90;;;;;;;26.18;25.69;98180.47;5106409;28;20132;-64
2022/05/12 07:45:37;;;;;;;8.07;3.42;;;;;;;26.22;25.80;98175.34;5105976;28;20035;-63
2022/05/12 07:48:03;;;;;;;7.57;3.42;;;;;;;26.24;26.10;98177.81;5105761;28;20264;-64
2022/05/12 07:50:29;;;;;;;6.95;3.55;;;;;;;26.28;26.15;98165.34;5102885;28;20032;-64
2022/05/12 07:52:55;;;;;;;7.60;3.30;;;;;;;26.31;26.03;98160.25;5102021;28;20229;-65
2022/05/12 07:55:21;;;;;;;6.55;3.45;;;;;;;26.36;26.12;98162.19;5116589;28;20028;-64
2022/05/12 07:57:46;;;;;;;6.28;3.20;;;;;;;26.38;26.19;98168.19;5108852;28;20085;-65
2022/05/12 08:00:12;;;;;;;7.28;3.33;;;;;;;26.41;26.13;98173.06;5106123;28;20067;-65
2022/05/12 08:02:38;;;;;;;19.55;3.53;;;;;;;26.45;26.32;98179.63;5111339;28;20244;-65
2022/05/12 08:05:05;;;;;;;10.45;3.63;;;;;;;26.47;26.28;98163.09;5107599;28;20088;-65
2022/05/12 08:07:31;;;;;;;9.10;3.17;;;;;;;26.48;26.42;98160.13;5103248;28;20091;-65
2022/05/12 08:09:58;;;;;;;7.72;3.05;;;;;;;26.51;26.32;98156.06;5109359;28;20046;-66
2022/05/12 08:12:24;;;;;;;5.82;2.60;;;;;;;26.52;26.34;98152.28;5115924;28;20141;-66
2022/05/12 08:14:50;;;;;;;9.90;2.80;;;;;;;26.56;26.29;98155.28;5106017;28;20058;-66
2022/05/12 08:17:16;;;;;;;19.20;4.10;;;;;;;26.57;26.48;98149.59;5111352;28;20217;-66
2022/05/12 08:19:41;;;;;;;4.50;2.53;;;;;;;26.58;26.27;98140.41;5103883;28;20411;-66
2022/05/12 08:22:07;;;;;;;7.47;2.67;;;;;;;26.59;26.22;98142.03;5105677;28;20056;-64
2022/05/12 08:24:33;;;;;;;9.05;2.75;;;;;;;26.60;26.48;98135.53;5101812;28;20241;-66
2022/05/12 08:26:59;;;;;;;6.10;2.28;;;;;;;26.62;26.51;98125.22;5106235;28;20040;-66
2022/05/12 08:29:24;;;;;;;5.80;2.83;;;;;;;26.61;26.51;98129.03;5107782;28;20044;-65
2022/05/12 08:31:50;;;;;;;10.02;3.35;;;;;;;26.62;26.65;98140.69;5108333;28;20191;-67
2022/05/12 08:34:15;;;;;;;8.95;2.90;;;;;;;26.61;26.42;98134.47;5108559;28;20225;-68
2022/05/12 08:36:41;;;;;;;7.80;2.17;;;;;;;26.61;26.79;98118.19;5106912;28;20048;-68
2022/05/12 08:39:06;;;;;;;7.35;2.20;;;;;;;26.62;26.75;98108.13;5105522;28;20059;-65
2022/05/12 08:41:50;;;;;;;6.15;2.45;;;;;;;26.62;27.01;98113.56;5106615;28;20257;-67
2022/05/12 08:44:20;;;;;;;5.82;2.25;;;;;;;26.64;26.92;98116.84;5105918;28;20024;-68
2022/05/12 08:46:55;;;;;;;9.65;3.20;;;;;;;26.64;27.12;98112.22;5099895;28;20039;-68
2022/05/12 08:49:26;;;;;;;5.75;2.30;;;;;;;26.68;27.01;98100.84;5105462;28;20024;-68
2022/05/12 08:51:59;;;;;;;11.50;2.05;;;;;;;26.68;27.15;98107.09;5105608;28;20028;-68
2022/05/12 08:54:26;;;;;;;6.38;2.50;;;;;;;26.68;27.23;98107.09;5104350;28;20022;-66
2022/05/12 08:57:04;;;;;;;7.55;1.83;;;;;;;26.69;27.25;98094.34;5106109;28;20059;-69
2022/05/12 08:59:43;;;;;;;12.27;2.25;;;;;;;26.70;27.24;98087.84;5105773;28;20055;-68
2022/05/12 09:03:08;;;;;;;5.80;1.80;;;;;;;26.70;27.32;98077.78;5076302;28;20074;-70
2022/05/12 09:05:42;;;;;;;8.55;2.17;;;;;;;26.70;27.34;98077.78;5068107;28;20031;-69
2022/05/12 09:08:33;;;;;;;9.85;2.22;;;;;;;26.71;27.17;98078.63;5106118;28;20020;-69
2022/05/12 09:11:09;;;;;;;5.53;2.20;;;;;;;26.72;27.16;98066.69;5099098;28;20036;-69
2022/05/12 09:13:46;;;;;;;5.13;1.77;;;;;;;26.73;27.01;98081.91;5085976;28;20047;-69
2022/05/12 09:16:26;;;;;;;11.40;2.88;;;;;;;26.74;26.98;98067.25;5086070;28;20029;-69
2022/05/12 09:18:53;;;;;;;6.45;1.90;;;;;;;26.75;27.03;98064.25;5089476;28;20044;-69
2022/05/12 09:21:31;;;;;;;4.97;1.70;;;;;;;26.76;27.10;98070.53;5089439;28;20024;-69
2022/05/12 09:23:57;;;;;;;6.25;2.63;;;;;;;26.74;27.04;98073.47;5089464;28;20029;-69
2022/05/12 09:26:47;;;;;;;4.25;1.70;;;;;;;26.76;26.88;98067.81;5089392;28;20036;-69
2022/05/12 09:29:23;;;;;;;4.55;2.05;;;;;;;26.77;27.09;98066.69;5092114;28;20044;-69
2022/05/12 09:32:03;;;;;;;5.00;1.80;;;;;;;26.77;26.92;98062.09;5109524;28;20031;-70
2022/05/12 09:34:36;;;;;;;7.50;1.98;;;;;;;26.79;26.92;98068.13;5109696;28;20043;-70
2022/05/12 09:37:26;;;;;;;3.22;1.40;;;;;;;26.79;26.90;98056.44;5108887;28;20058;-69
2022/05/12 09:39:56;;;;;;;5.57;1.73;;;;;;;26.80;26.80;98067.03;5093996;28;20043;-70
2022/05/12 09:42:28;;;;;;;2.30;1.50;;;;;;;26.81;26.86;98054.28;5091730;28;20027;-70
2022/05/12 09:45:18;;;;;;;5.80;1.58;;;;;;;26.83;27.19;98064.88;5091795;28;20141;-70
2022/05/12 09:47:44;;;;;;;3.85;1.40;;;;;;;26.82;26.88;98064.06;5093572;28;20047;-69
2022/05/12 09:50:19;;;;;;;7.07;1.88;;;;;;;26.81;26.75;98057.00;5117490;28;20039;-69
2022/05/12 09:52:55;;;;;;;4.13;1.50;;;;;;;26.83;26.55;98048.59;5114070;28;20036;-69
2022/05/12 09:55:55;;;;;;;2.95;1.67;;;;;;;26.84;26.50;98061.91;5088825;28;20033;-69
2022/05/12 09:58:21;;;;;;;4.65;1.98;;;;;;;26.83;26.50;98052.13;5089637;28;20067;-69
2022/05/12 10:01:23;;;;;;;4.47;1.55;;;;;;;26.84;26.50;98055.66;5108150;28;20047;-69
2022/05/12 10:09:28;;;;;;;3.50;1.58;;;;;;;26.87;26.45;98041.53;5108941;28;20077;-69
2022/05/12 10:12:02;;;;;;;2.33;1.50;;;;;;;26.86;26.49;98032.59;5108170;28;20024;-69
2022/05/12 10:14:43;;;;;;;6.28;2.08;;;;;;;26.87;26.46;98039.66;5108580;28;20039;-69
2022/05/12 10:17:34;;;;;;;3.17;1.60;;;;;;;26.86;26.54;98027.19;5109132;28;20032;-69
2022/05/12 10:20:18;;;;;;;3.65;1.52;;;;;;;26.87;26.38;98033.41;5108600;28;20023;-69
2022/05/12 10:22:53;;;;;;;4.85;1.45;;;;;;;26.87;26.34;98019.84;5108866;28;20184;-69
2022/05/12 10:25:30;;;;;;;3.03;1.75;;;;;;;26.88;26.45;98018.75;5108431;28;20036;-69
2022/05/12 10:28:21;;;;;;;4.28;1.80;;;;;;;26.88;26.23;98008.75;5107435;28;20067;-69
2022/05/12 10:31:07;;;;;;;5.03;1.90;;;;;;;26.87;26.50;98000.84;5108143;28;20085;-69
2022/05/12 10:33:59;;;;;;;3.45;2.13;;;;;;;26.88;26.43;98008.75;5057222;28;20096;-70
2022/05/12 10:37:00;;;;;;;4.25;1.77;;;;;;;26.89;26.36;98012.25;5108285;28;20016;-70
2022/05/12 10:39:47;;;;;;;2.92;1.83;;;;;;;26.86;26.30;98000.03;5108265;28;20028;-70
2022/05/12 10:42:36;;;;;;;5.18;3.10;;;;;;;26.91;26.32;98001.94;5107759;28;20059;-70
2022/05/12 10:45:13;;;;;;;3.35;1.88;;;;;;;26.93;26.25;97999.78;5108290;28;20055;-70
2022/05/12 10:47:57;;;;;;;4.22;1.60;;;;;;;26.93;26.34;97997.06;5107354;28;20058;-70
2022/05/12 10:50:45;;;;;;;2.72;1.83;;;;;;;26.94;26.10;97980.53;5087750;28;20059;-70
2022/05/12 10:53:20;;;;;;;3.55;1.88;;;;;;;26.96;26.11;97982.97;5088780;28;20028;-70
2022/05/12 10:56:01;;;;;;;4.93;1.92;;;;;;;26.97;26.21;97979.19;5128361;28;20031;-70
2022/05/12 10:58:42;;;;;;;;;;;;;;;26.90;26.33;97965.88;5111607;28;20141;-70
2022/05/12 11:01:15;;;;;;;6.07;1.58;;;;;;;26.94;26.23;97968.88;5107336;28;19982;-70
2022/05/12 11:03:59;;;;;;;6.50;1.75;;;;;;;26.98;26.14;97958.28;5107718;28;20098;-70
2022/05/12 11:06:32;;;;;;;3.92;1.70;;;;;;;26.99;26.13;97968.84;5107806;28;20047;-70
2022/05/12 11:09:06;;;;;;;5.53;1.60;;;;;;;27.00;26.07;97959.63;5107750;28;20091;-70
2022/05/12 11:11:37;;;;;;;4.35;1.90;;;;;;;27.01;26.07;97953.13;5107701;28;20023;-69
2022/05/12 11:14:08;;;;;;;;;;;;;;;26.94;26.22;97960.72;5108192;28;20032;-70
2022/05/12 11:16:47;;;;;;;3.42;1.73;;;;;;;26.98;26.21;97955.56;5107623;28;20026;-69
2022/05/12 11:19:15;;;;;;;3.13;1.60;;;;;;;27.01;26.25;97947.69;5106911;28;20032;-70
2022/05/12 11:21:52;;;;;;;3.22;1.80;;;;;;;27.03;26.21;97947.44;5107487;28;20028;-70
2022/05/12 11:24:35;;;;;;;4.72;1.75;;;;;;;27.05;26.08;97937.13;5107673;28;20030;-70
2022/05/12 11:27:19;;;;;;;2.97;1.73;;;;;;;27.04;26.11;97930.88;5102691;28;20021;-70
2022/05/12 11:30:31;;;;;;;3.53;1.60;;;;;;;27.06;26.05;97923.28;5087152;28;20050;-68
2022/05/12 11:33:22;;;;;;;4.20;1.88;;;;;;;27.07;26.06;97933.06;5095764;28;20134;-68
2022/05/12 11:35:51;;;;;;;3.22;1.85;;;;;;;27.06;26.21;97928.72;5086933;28;20226;-68
2022/05/12 11:38:39;;;;;;;5.05;1.92;;;;;;;27.08;26.39;97923.84;5101689;28;20044;-68
2022/05/12 11:41:37;;;;;;;5.07;2.10;;;;;;;27.09;26.25;97916.50;5106651;28;20043;-69
2022/05/12 11:44:24;;;;;;;9.07;2.95;;;;;;;27.08;26.43;97904.84;5106762;28;20032;-69
2022/05/12 11:47:01;;;;;;;5.70;2.35;;;;;;;27.08;26.19;97912.16;5106920;28;20287;-69
2022/05/12 11:50:25;;;;;;;5.88;2.65;;;;;;;27.07;26.43;97914.06;5089407;28;20162;-68
2022/05/12 11:53:16;;;;;;;6.90;2.35;;;;;;;27.07;26.52;97918.66;5005479;28;20302;-69
2022/05/12 11:55:53;;;;;;;5.60;2.20;;;;;;;27.06;26.58;97901.56;5006147;28;20055;-69
2022/05/12 11:58:34;;;;;;;6.30;2.20;;;;;;;27.07;26.52;97895.06;5057902;28;20049;-70
2022/05/12 12:01:03;;;;;;;5.30;2.10;;;;;;;27.06;26.72;97898.84;5066581;28;20032;-69
2022/05/12 12:03:29;;;;;;;9.32;2.17;;;;;;;27.07;26.47;97896.94;5070041;28;20027;-68
2022/05/12 12:05:54;;;;;;;4.45;2.25;;;;;;;27.10;26.63;97904.56;5086615;28;20024;-68
2022/05/12 12:08:32;;;;;;;6.93;2.05;;;;;;;27.09;26.60;97895.63;5085900;28;20037;-69